createdAt,value
2019-04-06T00:12:28.601Z,23.67
2019-04-06T00:24:36.563Z,19.67
2019-04-06T00:27:09.933Z,18.07
2019-04-06T00:43:23.077Z,19.70
2019-04-06T00:45:55.815Z,17.40
2019-04-06T00:52:04.341Z,17.30
2019-04-06T01:12:53.297Z,22.00
2019-04-06T01:15:24.428Z,19.77
2019-04-06T01:21:25.608Z,22.83
2019-04-06T01:31:21.898Z,22.07
2019-04-06T01:33:59.368Z,20.30
2019-04-06T02:35:47.249Z,23.23
2019-04-06T02:38:42.231Z,23.97
2019-04-06T02:45:12.589Z,23.77
2019-04-06T03:03:57.538Z,26.80
2019-04-06T03:06:29.567Z,24.57
2019-04-06T03:19:49.815Z,23.60
2019-04-06T03:44:58.822Z,28.20
2019-04-06T03:57:45.497Z,26.43
2019-04-06T04:00:17.714Z,25.60
2019-04-06T04:03:06.157Z,24.73
2019-04-06T04:12:11.526Z,24.53
2019-04-06T04:21:09.829Z,23.70
2019-04-06T04:23:41.034Z,26.70
2019-04-06T04:29:36.213Z,31.63
2019-04-06T04:36:02.459Z,28.30
2019-04-06T05:01:14.264Z,30.80
2019-04-06T05:10:17.463Z,33.02
2019-04-06T05:32:22.648Z,67.65
2019-04-06T05:34:57.916Z,49.33
2019-04-06T05:37:28.818Z,47.43
2019-04-06T06:04:11.492Z,59.17
2019-04-06T06:13:26.673Z,109.25
2019-04-06T06:16:03.135Z,57.40
2019-04-06T06:19:05.628Z,53.48
2019-04-06T06:21:37.473Z,83.87
2019-04-06T06:24:10.013Z,46.88
2019-04-06T06:26:41.207Z,88.65
2019-04-06T06:33:01.507Z,47.43
2019-04-06T06:35:34.422Z,51.07
2019-04-06T06:38:06.029Z,61.18
2019-04-06T06:40:37.901Z,59.20
2019-04-06T06:43:11.309Z,141.67
2019-04-06T06:46:30.077Z,57.83
2019-04-06T06:56:25.928Z,94.27
2019-04-06T06:58:57.200Z,70.97
2019-04-06T07:01:28.817Z,46.90
2019-04-06T07:07:49.805Z,64.40
2019-04-06T07:10:21.418Z,85.47
2019-04-06T07:16:20.539Z,44.00
2019-04-06T07:22:28.977Z,73.23
2019-04-06T07:25:00.388Z,72.87
2019-04-06T07:27:34.769Z,64.63
2019-04-06T07:42:42.460Z,70.23
2019-04-06T07:45:14.593Z,60.47
2019-04-06T07:51:00.816Z,43.07
2019-04-06T07:53:38.749Z,76.03
2019-04-06T07:56:11.100Z,43.50
2019-04-06T07:58:48.590Z,45.43
2019-04-06T08:01:15.351Z,52.20
2019-04-06T08:07:24.532Z,75.83
2019-04-06T08:09:57.261Z,57.10
2019-04-06T08:12:28.924Z,45.17
2019-04-06T08:15:00.057Z,44.00
2019-04-06T08:20:56.339Z,44.33
2019-04-06T08:23:27.521Z,45.63
2019-04-06T08:25:59.143Z,46.57
2019-04-06T08:28:30.757Z,45.77
2019-04-06T08:31:02.869Z,42.47
2019-04-06T08:37:09.054Z,48.50
2019-04-06T08:39:40.760Z,43.57
2019-04-06T08:42:13.134Z,41.47
2019-04-06T08:44:44.832Z,46.17
2019-04-06T08:47:16.389Z,41.80
2019-04-06T08:49:47.694Z,42.13
2019-04-06T09:03:04.349Z,38.30
2019-04-06T09:05:47.211Z,37.93
2019-04-06T09:08:18.597Z,41.33
2019-04-06T09:10:49.861Z,37.40
2019-04-06T09:16:45.488Z,36.27
2019-04-06T09:19:51.423Z,35.97
2019-04-06T09:22:23.375Z,42.43
2019-04-06T09:24:54.905Z,38.40
2019-04-06T09:27:26.332Z,33.20
2019-04-06T09:29:58.115Z,37.63
2019-04-06T09:32:49.027Z,37.50
2019-04-06T09:35:20.366Z,35.73
2019-04-06T09:41:44.955Z,35.60
2019-04-06T09:44:47.968Z,38.07
2019-04-06T09:51:30.173Z,41.10
2019-04-06T09:54:26.097Z,34.10
2019-04-06T09:57:31.450Z,32.20
2019-04-06T10:07:36.665Z,33.50
2019-04-06T10:10:42.801Z,39.50
2019-04-06T10:13:36.997Z,32.33
2019-04-06T10:16:30.284Z,29.43
2019-04-06T10:19:21.018Z,28.67
2019-04-06T10:22:14.092Z,31.83
2019-04-06T10:24:57.961Z,28.23
2019-04-06T10:27:46.265Z,26.67
2019-04-06T10:30:35.501Z,23.40
2019-04-06T10:33:25.992Z,24.57
2019-04-06T10:36:22.565Z,28.83
2019-04-06T10:39:03.957Z,26.70
2019-04-06T10:41:53.062Z,23.20
2019-04-06T10:44:43.511Z,22.83
2019-04-06T10:47:39.158Z,25.20
2019-04-06T10:50:18.811Z,20.57
2019-04-06T10:53:20.800Z,23.10
2019-04-06T10:56:08.072Z,22.77
2019-04-06T10:59:14.489Z,19.67
2019-04-06T11:02:10.474Z,20.90
2019-04-06T11:04:49.874Z,21.97
2019-04-06T11:07:47.465Z,18.83
2019-04-06T11:10:39.357Z,20.57
2019-04-06T11:13:35.603Z,21.80
2019-04-06T11:16:15.747Z,19.93
2019-04-06T11:19:20.793Z,17.70
2019-04-06T11:22:20.858Z,25.97
2019-04-06T11:25:14.098Z,17.50
2019-04-06T11:28:19.525Z,20.43
2019-04-06T11:30:59.485Z,16.53
2019-04-06T11:33:50.177Z,17.87
2019-04-06T11:36:39.096Z,19.03
2019-04-06T11:39:26.530Z,17.47
2019-04-06T11:42:14.823Z,14.70
2019-04-06T11:45:10.678Z,15.27
2019-04-06T11:48:01.217Z,17.80
2019-04-06T11:50:50.587Z,14.07
2019-04-06T11:53:53.374Z,18.90
2019-04-06T11:56:42.676Z,13.93
2019-04-06T11:59:35.709Z,22.80
2019-04-06T12:02:24.579Z,15.73
2019-04-06T12:05:12.489Z,16.90
2019-04-06T12:08:15.714Z,14.63
2019-04-06T12:11:00.762Z,15.00
2019-04-06T12:13:39.297Z,16.57
2019-04-06T12:16:32.515Z,19.27
2019-04-06T12:19:31.774Z,12.77
2019-04-06T12:22:28.368Z,14.43
2019-04-06T12:25:07.936Z,13.10
2019-04-06T12:27:50.852Z,15.43
2019-04-06T12:30:56.329Z,16.87
2019-04-06T12:33:42.141Z,15.90
2019-04-06T12:36:34.561Z,16.00
2019-04-06T12:39:20.370Z,13.60
2019-04-06T12:42:14.026Z,15.27
2019-04-06T12:45:04.401Z,23.73
2019-04-06T12:48:10.178Z,15.87
2019-04-06T12:50:59.360Z,15.20
2019-04-06T12:53:58.923Z,15.50
2019-04-06T12:56:53.024Z,19.40
2019-04-06T12:59:50.309Z,20.20
2019-04-06T13:02:30.978Z,17.97
2019-04-06T13:05:27.533Z,21.53
2019-04-06T13:08:16.693Z,14.80
2019-04-06T13:11:03.186Z,19.40
2019-04-06T13:13:56.574Z,21.20
2019-04-06T13:16:34.182Z,16.70
2019-04-06T13:19:24.450Z,19.17
2019-04-06T13:22:13.287Z,22.37
2019-04-06T13:25:01.916Z,24.60
2019-04-06T13:27:43.551Z,24.97
2019-04-06T13:30:33.040Z,22.23
2019-04-06T13:33:23.916Z,23.07
2019-04-06T13:36:09.198Z,22.40
2019-04-06T13:39:18.251Z,20.60
2019-04-06T13:42:00.333Z,25.03
2019-04-06T13:44:40.833Z,23.77
2019-04-06T13:47:22.415Z,23.10
2019-04-06T13:50:07.529Z,23.73
2019-04-06T13:53:05.726Z,23.37
2019-04-06T13:55:47.460Z,25.00
2019-04-06T13:58:40.932Z,19.70
2019-04-06T14:01:29.499Z,23.03
2019-04-06T14:04:21.030Z,24.10
2019-04-06T14:07:10.530Z,23.50
2019-04-06T14:10:04.531Z,23.07
2019-04-06T14:12:46.119Z,26.43
2019-04-06T14:15:54.665Z,21.10
2019-04-06T14:18:56.316Z,28.80
2019-04-06T14:21:43.719Z,24.97
2019-04-06T14:24:25.548Z,24.70
2019-04-06T14:27:27.225Z,26.33
2019-04-06T14:30:21.879Z,27.00
2019-04-06T14:33:12.299Z,22.87
2019-04-06T14:36:09.598Z,22.40
2019-04-06T14:39:05.099Z,22.50
2019-04-06T14:41:59.854Z,23.57
2019-04-06T14:44:59.499Z,30.00
2019-04-06T14:47:49.361Z,26.87
2019-04-06T14:50:55.044Z,24.40
2019-04-06T14:53:41.497Z,24.13
2019-04-06T14:56:30.603Z,23.17
2019-04-06T14:59:24.777Z,26.03
2019-04-06T15:02:30.195Z,27.37
2019-04-06T15:05:25.039Z,21.63
2019-04-06T15:08:18.982Z,27.83
2019-04-06T15:11:24.789Z,25.23
2019-04-06T15:14:14.195Z,25.57
2019-04-06T15:16:57.374Z,25.33
2019-04-06T15:19:53.686Z,29.77
2019-04-06T15:22:32.298Z,26.73
2019-04-06T15:25:25.738Z,23.80
2019-04-06T15:28:18.956Z,24.20
2019-04-06T15:31:15.073Z,26.10
2019-04-06T15:34:04.841Z,25.50
2019-04-06T15:36:54.430Z,25.23
2019-04-06T15:39:43.426Z,25.23
2019-04-06T15:45:43.305Z,27.70
2019-04-06T15:48:38.463Z,25.57
2019-04-06T15:51:27.849Z,23.40
2019-04-06T15:54:23.809Z,25.73
2019-04-06T15:57:02.260Z,24.20
2019-04-06T15:59:52.399Z,26.33
2019-04-06T16:02:42.001Z,24.90
2019-04-06T16:05:47.958Z,29.03
2019-04-06T16:08:30.475Z,25.30
2019-04-06T16:11:19.453Z,27.90
2019-04-06T16:14:08.320Z,25.00
2019-04-06T16:17:01.299Z,27.07
2019-04-06T16:19:57.694Z,24.33
2019-04-06T16:22:43.067Z,21.70
2019-04-06T16:25:24.155Z,22.83
2019-04-06T16:28:26.449Z,26.50
2019-04-06T16:31:22.156Z,26.03
2019-04-06T16:34:01.480Z,23.60
2019-04-06T16:37:04.604Z,24.37
2019-04-06T16:39:58.395Z,24.27
2019-04-06T16:42:44.953Z,25.60
2019-04-06T16:45:41.441Z,21.90
2019-04-06T16:48:22.964Z,21.77
2019-04-06T16:51:20.180Z,20.97
2019-04-06T16:54:08.462Z,19.57
2019-04-06T16:56:48.525Z,24.43
2019-04-06T16:59:41.826Z,22.40
2019-04-06T17:02:24.690Z,24.43
2019-04-06T17:05:14.298Z,23.50
2019-04-06T17:08:09.642Z,22.10
2019-04-06T17:10:40.275Z,20.10
2019-04-06T17:13:30.672Z,24.63
2019-04-06T17:16:20.227Z,22.03
2019-04-06T17:18:58.315Z,20.47
2019-04-06T17:21:44.541Z,22.67
2019-04-06T17:24:33.533Z,23.20
2019-04-06T17:27:19.996Z,20.70
2019-04-06T17:30:19.809Z,22.17
2019-04-06T17:33:09.189Z,26.80
2019-04-06T17:35:57.106Z,19.63
2019-04-06T17:38:48.049Z,19.93
2019-04-06T17:41:42.298Z,19.90
2019-04-06T17:44:31.713Z,18.40
2019-04-06T17:47:20.450Z,19.43
2019-04-06T17:50:29.291Z,17.87
2019-04-06T17:53:22.127Z,19.23
2019-04-06T17:56:08.189Z,20.87
2019-04-06T17:59:07.386Z,20.73
2019-04-06T18:02:07.067Z,18.50
2019-04-06T18:05:09.153Z,22.07
2019-04-06T18:08:17.157Z,20.43
2019-04-06T18:11:07.863Z,22.20
2019-04-06T18:13:53.112Z,26.13
2019-04-06T18:16:27.771Z,23.33
2019-04-06T18:18:59.304Z,22.90
2019-04-06T18:21:31.138Z,21.43
2019-04-06T18:24:03.546Z,21.83
2019-04-06T18:26:47.575Z,21.03
2019-04-06T18:29:30.907Z,24.23
2019-04-06T18:32:10.914Z,24.40
2019-04-06T18:34:42.256Z,24.87
2019-04-06T18:37:35.640Z,26.40
2019-04-06T18:40:41.837Z,26.23
2019-04-06T18:43:13.329Z,26.53
2019-04-06T18:45:44.536Z,25.57
2019-04-06T18:48:20.006Z,26.47
2019-04-06T18:50:51.794Z,26.50
2019-04-06T18:53:24.545Z,30.00
2019-04-06T18:55:56.087Z,26.10
2019-04-06T18:58:27.796Z,24.30
2019-04-06T19:00:59.567Z,26.97
2019-04-06T19:03:42.420Z,26.20
2019-04-06T19:06:13.693Z,26.80
2019-04-06T19:08:45.699Z,23.90
2019-04-06T19:11:17.893Z,24.47
2019-04-06T19:13:49.099Z,23.00
2019-04-06T19:16:20.693Z,24.53
2019-04-06T19:18:52.080Z,25.03
2019-04-06T19:21:23.403Z,19.67
2019-04-06T19:23:56.046Z,24.70
2019-04-06T19:26:27.581Z,20.67
2019-04-06T19:28:58.856Z,19.90
2019-04-06T19:31:30.207Z,20.63
2019-04-06T19:34:01.330Z,21.77
2019-04-06T19:36:33.037Z,22.60
2019-04-06T19:39:08.617Z,22.03
2019-04-06T19:41:40.725Z,22.43
2019-04-06T19:44:12.009Z,22.23
2019-04-06T19:46:43.601Z,33.77
2019-04-06T19:49:15.266Z,27.07
2019-04-06T19:51:46.878Z,28.53
2019-04-06T19:54:18.692Z,32.27
2019-04-06T19:56:50.327Z,31.23
2019-04-06T19:59:21.463Z,26.90
2019-04-06T20:01:53.573Z,24.13
2019-04-06T20:04:25.359Z,28.30
2019-04-06T20:06:56.984Z,27.20
2019-04-06T20:09:28.669Z,22.80
2019-04-06T20:12:05.671Z,26.60
2019-04-06T20:14:33.565Z,27.83
2019-04-06T20:17:05.294Z,26.13
2019-04-06T20:19:36.690Z,27.20
2019-04-06T20:22:08.080Z,42.00
2019-04-06T20:24:39.366Z,32.73
2019-04-06T20:27:10.677Z,28.23
2019-04-06T20:29:41.911Z,29.60
2019-04-06T20:32:14.605Z,26.50
2019-04-06T20:34:45.767Z,29.07
2019-04-06T20:37:17.113Z,31.40
2019-04-06T20:39:48.280Z,31.97
2019-04-06T20:42:20.005Z,32.53
2019-04-06T20:44:51.626Z,31.97
2019-04-06T20:47:23.134Z,39.93
2019-04-06T20:49:54.803Z,29.03
2019-04-06T20:52:26.364Z,32.50
2019-04-06T20:54:58.065Z,28.20
2019-04-06T20:57:30.731Z,31.03
2019-04-06T21:00:02.795Z,31.30
2019-04-06T21:02:35.041Z,36.90
2019-04-06T21:05:07.949Z,32.83
2019-04-06T21:07:40.479Z,30.47
2019-04-06T21:10:12.075Z,29.60
2019-04-06T21:12:55.356Z,29.33
2019-04-06T21:15:27.287Z,27.50
2019-04-06T21:17:59.072Z,27.00
2019-04-06T21:20:30.169Z,28.67
2019-04-06T21:23:01.669Z,32.53
2019-04-06T21:25:44.545Z,27.10
2019-04-06T21:28:16.638Z,35.37
2019-04-06T21:30:47.889Z,32.83
2019-04-06T21:33:19.768Z,32.53
2019-04-06T21:35:51.202Z,30.90
2019-04-06T21:38:22.844Z,33.17
2019-04-06T21:40:54.446Z,32.03
2019-04-06T21:43:26.284Z,32.97
2019-04-06T21:45:57.581Z,33.00
2019-04-06T21:48:29.481Z,33.50
2019-04-06T21:51:00.736Z,35.53
2019-04-06T21:53:32.081Z,42.97
2019-04-06T21:56:07.333Z,36.20
2019-04-06T21:58:36.430Z,36.40
2019-04-06T22:01:08.884Z,32.13
2019-04-06T22:03:40.977Z,35.63
2019-04-06T22:06:12.698Z,36.03
2019-04-06T22:08:44.376Z,33.47
2019-04-06T22:11:16.453Z,29.17
2019-04-06T22:13:48.719Z,36.90
2019-04-06T22:16:20.202Z,33.87
2019-04-06T22:18:52.055Z,32.00
2019-04-06T22:21:24.664Z,32.57
2019-04-06T22:23:56.013Z,39.40
2019-04-06T22:26:27.509Z,33.30
2019-04-06T22:28:59.092Z,34.93
2019-04-06T22:31:30.631Z,41.83
2019-04-06T22:34:02.291Z,39.50
2019-04-06T22:36:33.496Z,35.90
2019-04-06T22:39:07.171Z,36.57
2019-04-06T22:41:39.006Z,34.23
2019-04-06T22:44:11.047Z,38.53
2019-04-06T22:46:42.912Z,37.50
2019-04-06T22:49:14.809Z,41.90
2019-04-06T22:51:46.359Z,40.27
2019-04-06T22:54:18.398Z,34.70
2019-04-06T22:56:49.677Z,37.43
2019-04-06T22:59:21.125Z,39.17
2019-04-06T23:01:53.261Z,36.70
2019-04-06T23:04:33.260Z,35.93
2019-04-06T23:07:08.445Z,40.10
2019-04-06T23:09:40.121Z,41.80
2019-04-06T23:12:11.934Z,41.00
2019-04-06T23:14:44.316Z,39.67
2019-04-06T23:17:15.730Z,40.40
2019-04-06T23:19:47.218Z,37.83
2019-04-06T23:22:18.437Z,36.27
2019-04-06T23:24:50.177Z,33.40
2019-04-06T23:27:21.547Z,35.00
2019-04-06T23:29:53.510Z,38.60
2019-04-06T23:32:25.033Z,40.77
2019-04-06T23:35:00.520Z,37.87
2019-04-06T23:37:29.973Z,40.83
2019-04-06T23:40:01.647Z,37.13
2019-04-06T23:42:34.213Z,39.40
2019-04-06T23:45:05.987Z,38.37
2019-04-06T23:47:37.694Z,46.80
2019-04-06T23:50:09.246Z,37.60
2019-04-06T23:52:41.022Z,33.40
2019-04-06T23:55:13.431Z,39.83
2019-04-06T23:57:45.452Z,38.07
